ZGSZ

Shenzhen Bao'an International Airport

Shenzhen, China
TAF ZGSZ 160319Z 1606/1706 12004MPS 6000 SCT030 TX28/1607Z TN23/1622Z TEMPO 1622/1704 2500 -RA BR
Issued Valid From Valid To
Nov-16 @ 03:19 UTC
(4 hours ago)
Nov-16 @ 06:00 UTC
(2 hours ago)
Nov-17 @ 06:00 UTC
(in 22 hours)
Nov-16 @ 06:00 to Nov-17 @ 06:00
TAF ZGSZ 160319Z 1606/1706 12004MPS 6000 SCT030 TX28/1607Z TN23/1622Z
Wind Visibility Clouds
120° at 8 knots 6,003 meters
  • Scattered at 3,000' AGL
Temporary Nov-16 @ 22:00 to Nov-17 @ 04:00
TEMPO 1622/1704 2500 -RA BR
Visibility Conditions
2,494 meters
  • Light Rain
  • Mist
TAF ZGSZ 160319Z 1606/1706 12004MPS 6000 SCT030 TX28/1607Z TN23/1622Z TEMPO 1622/1704 2500 -RA BR
Issued Nov-16 @ 03:19 UTC
(4 hours ago)
Valid From Nov-16 @ 06:00 UTC
(2 hours ago)
Valid To Nov-17 @ 06:00 UTC
(in 22 hours)
Nov-16 @ 06:00 - Nov-17 @ 06:00
Wind Visibility
120° at 8 knots 6,003 meters
Clouds
  • Scattered at 3,000' AGL
Temporary Nov-16 @ 22:00 - Nov-17 @ 04:00
Conditions
  • Light Rain
  • Mist